Charqueada, Brazil
Current Conditions -  °F | °C
As of 10:08 AM on Wednesday 26 Nov 2014 (Local Time) from SBYS Reporting Station
Drizzle Drizzle  
Wind Chill: 73°   Ceiling: 1700
Heat Index: 73°   Visibility: 1.2mi
Dew Point: 68°   Wind: 12mph
Humidity: 83%   Direction: 340°NNW
Pressure: 29.88"   Gusts: NA
Location:  22.51°S, 47.78°W
Report Text: SBYS 261208Z 34010KT 2000 -DZ BR SCT009 BKN017 BKN070 23/20 Q1012
Loading
Personal Weather Stations






























Interactive Weather Map New forecast layout! Learn more

10-Day Weather Forecast

Advertisements
Track Severe Weather on mobile